• Join FlightAware (Why Join?)
  • Login
  • US Flag 
02:29AM EDT


 

Airport Tracker/Info


-or-


 

Live Flight TrackerFlight Track Log ✈ SWA3321 ✈ 09-Apr-2013 ✈ KMDW - KLAS

Flight Track Log - Related Links

Times and Time Zones

All times are in EDT time to prevent confusion due to time zone crossing. See the SWA3321 flight status page for this flight to view local times or setup timezone preferences in your user account.

Time Position Orientation Groundspeed Altitude Reporting Facility
EDT Latitude Longitude Course Direction KTS MPH feet Rate Location/Type
10:02AM 41.8167 -87.7333 272° West 179 206 1,800  Level Chicago TRACON
10:04AM 41.8189 -87.8381 272° West 218 251 6,100 2,820 Climbing Chicago Center
10:04AM 41.8167 -87.8667 264° West 238 274 7,200 3,180 Climbing Chicago TRACON
10:05AM 41.8086 -87.9481 262° West 258 297 9,400 2,640 Climbing Chicago Center
10:06AM 41.8131 -88.0511 273° West 278 320 12,000 1,200 Climbing Chicago Center
10:07AM 41.8186 -88.1533 274° West 278 320 12,000  Level Chicago Center
10:08AM 41.8242 -88.2533 274° West 273 314 12,000  Level Chicago Center
10:09AM 41.8292 -88.3531 274° West 272 313 12,000 1,080 Level Chicago Center
10:10AM 41.8347 -88.4714 274° West 268 308 14,300 1,740 Climbing Chicago Center
10:11AM 41.8411 -88.5758 275° West 281 323 15,700 1,860 Climbing Chicago Center
10:12AM 41.8439 -88.7039 272° West 339 390 18,200 2,280 Climbing Chicago Center
10:13AM 41.8464 -88.8342 272° West 349 402 20,400 2,040 Climbing Chicago Center
10:14AM 41.8475 -88.9703 271° West 364 419 22,400 1,920 Climbing Chicago Center
10:15AM 41.8450 -89.1136 269° West 382 440 24,400 1,920 Climbing Chicago Center
10:16AM 41.8286 -89.2889 263° West 400 460 26,400 1,680 Climbing Chicago Center
10:17AM 41.8097 -89.4364 260° West 404 465 27,900 1,440 Climbing Chicago Center
10:18AM 41.7914 -89.5781 260° West 414 476 29,400 1,320 Climbing Chicago Center
10:19AM 41.7728 -89.7314 261° West 419 482 30,700 1,560 Climbing Chicago Center
10:21AM 41.7494 -89.9194 261° West 427 491 32,700 1,920 Climbing Chicago Center
10:22AM 41.7306 -90.0694 260° West 415 478 34,700 1,080 Climbing Chicago Center
10:23AM 41.7117 -90.2156 260° West 404 465 35,000 120 Climbing Chicago Center
10:24AM 41.6906 -90.3683 260° West 418 481 35,000  Level Chicago Center
10:25AM 41.6700 -90.5161 259° West 409 471 35,000  Level Chicago Center
10:26AM 41.6519 -90.6561 260° West 402 463 35,000  Level Chicago Center
10:27AM 41.6283 -90.8331 260° West 402 463 35,000  Level Chicago Center
10:28AM 41.6083 -90.9800 260° West 402 463 35,000  Level Chicago Center
10:29AM 41.5881 -91.1261 260° West 404 465 35,000  Level Chicago Center
10:30AM 41.5675 -91.2739 260° West 405 466 35,000  Level Chicago Center
10:31AM 41.5425 -91.4211 257° West 407 468 35,000  Level Chicago Center
10:32AM 41.5000 -91.5628 248° West 412 474 35,000  Level Chicago Center
10:33AM 41.4533 -91.7369 250° West 415 478 35,000  Level Chicago Center
10:34AM 41.4153 -91.8808 251° West 413 475 35,000 240 Level Chicago Center
10:35AM 41.3844 -92.0275 254° West 413 475 35,600 480 Climbing Chicago Center
10:36AM 41.3733 -92.1808 265° West 416 479 36,000 180 Climbing Chicago Center
10:37AM 41.3608 -92.3292 264° West 408 470 36,000  Level Chicago Center
10:38AM 41.3489 -92.4822 264° West 410 472 36,000  Level Chicago Center
10:39AM 41.3367 -92.6300 264° West 407 468 36,000  Level Chicago Center
10:40AM 41.3267 -92.7531 264° West 411 473 36,000  Level Minneapolis Center
10:41AM 41.3147 -92.9003 264° West 410 472 36,000  Level Minneapolis Center
10:42AM 41.3011 -93.0506 263° West 410 472 36,000  Level Minneapolis Center
10:43AM 41.2856 -93.2281 263° West 410 472 36,000  Level Minneapolis Center
10:44AM 41.2722 -93.3750 263° West 408 470 36,000  Level Minneapolis Center
10:45AM 41.2597 -93.5217 264° West 405 466 36,000  Level Minneapolis Center
10:46AM 41.2483 -93.6661 264° West 400 460 36,000  Level Minneapolis Center
10:47AM 41.2347 -93.8150 263° West 408 470 36,000  Level Minneapolis Center
10:48AM 41.2203 -93.9625 263° West 408 470 36,000  Level Minneapolis Center
10:49AM 41.2044 -94.1381 263° West 405 466 36,000  Level Minneapolis Center
10:50AM 41.1911 -94.2708 262° West 404 465 36,000  Level Minneapolis Center
10:51AM 41.1767 -94.4192 263° West 404 465 36,000  Level Minneapolis Center
10:52AM 41.1619 -94.5667 262° West 403 464 36,000 240 Level Minneapolis Center
10:53AM 41.1439 -94.7428 262° West 402 463 36,500 960 Climbing Minneapolis Center
10:54AM 41.1294 -94.8883 263° West 399 459 38,000 720 Climbing Minneapolis Center
10:55AM 41.1139 -95.0308 262° West 393 452 38,000  Level Minneapolis Center
10:56AM 41.0994 -95.1739 262° West 391 450 38,000  Level Minneapolis Center
10:57AM 41.0842 -95.3164 262° West 390 449 38,000  Level Minneapolis Center
10:58AM 41.0681 -95.4603 262° West 392 451 38,000  Level Minneapolis Center
10:59AM 41.0528 -95.6033 262° West 391 450 38,000  Level Minneapolis Center
11:00AM 41.0364 -95.7461 261° West 390 449 38,000  Level Minneapolis Center
11:01AM 41.0208 -95.8892 262° West 390 449 38,000  Level Minneapolis Center
11:02AM 41.0056 -96.0322 262° West 389 448 38,000  Level Minneapolis Center
11:03AM 40.9897 -96.1742 262° West 388 447 38,000  Level Minneapolis Center
11:04AM 40.9703 -96.3439 261° West 387 445 38,000  Level Minneapolis Center
11:05AM 40.9542 -96.4850 261° West 387 445 38,000  Level Minneapolis Center
11:06AM 40.9369 -96.6242 261° West 384 442 38,000  Level Minneapolis Center
11:07AM 40.9211 -96.7661 262° West 388 447 38,000  Level Minneapolis Center
11:08AM 40.9069 -96.9064 262° West 386 444 38,000  Level Minneapolis Center
11:09AM 40.8950 -97.0483 264° West 387 445 38,000  Level Minneapolis Center
11:10AM 40.8803 -97.1903 262° West 389 448 38,000  Level Minneapolis Center
11:11AM 40.8664 -97.3328 263° West 390 449 38,000  Level Minneapolis Center
11:13AM 40.8519 -97.4711 262° West 387 445 38,000  Level Minneapolis Center
11:14AM 40.8361 -97.6414 263° West 388 447 38,000  Level Minneapolis Center
11:15AM 40.8214 -97.7831 262° West 388 447 38,000  Level Minneapolis Center
11:16AM 40.8067 -97.9231 262° West 387 445 38,000  Level Minneapolis Center
11:17AM 40.7919 -98.0636 262° West 386 444 38,000  Level Minneapolis Center
11:18AM 40.7769 -98.2042 262° West 386 444 38,000  Level Minneapolis Center
11:19AM 40.7617 -98.3442 262° West 384 442 38,000  Level Minneapolis Center
11:20AM 40.7472 -98.4850 262° West 385 443 38,000  Level Minneapolis Center
11:21AM 40.7319 -98.6264 262° West 386 444 38,000  Level Minneapolis Center
11:22AM 40.7161 -98.7678 262° West 386 444 38,000  Level Minneapolis Center
11:23AM 40.7003 -98.9075 262° West 384 442 38,000  Level Minneapolis Center
11:24AM 40.6844 -99.0478 262° West 384 442 38,000  Level Minneapolis Center
11:25AM 40.6681 -99.1861 261° West 382 440 38,000  Level Denver Center
11:26AM 40.6525 -99.3256 262° West 382 440 38,000  Level Denver Center
11:27AM 40.6353 -99.4661 261° West 386 444 38,000  Level Denver Center
11:28AM 40.6158 -99.6361 261° West 390 449 38,000  Level Denver Center
11:29AM 40.5983 -99.7767 261° West 389 448 38,000  Level Denver Center
11:30AM 40.5822 -99.9047 261° West 387 445 38,000  Level Denver Center
11:31AM 40.5636 -100.0589 261° West 383 441 38,000  Level Denver Center
11:32AM 40.5481 -100.1908 261° West 381 438 38,000  Level Denver Center
11:33AM 40.5289 -100.3439 261° West 379 436 38,000  Level Denver Center
11:34AM 40.5125 -100.4750 261° West 378 435 38,000  Level Denver Center
11:35AM 40.4919 -100.6269 260° West 376 433 38,000  Level Denver Center
11:36AM 40.4758 -100.7569 261° West 376 433 38,000  Level Denver Center
11:37AM 40.4583 -100.8875 260° West 377 434 38,000  Level Denver Center
11:38AM 40.4386 -101.0406 260° West 378 435 38,000  Level Denver Center
11:39AM 40.4197 -101.1731 259° West 382 440 38,000  Level Denver Center
11:40AM 40.3989 -101.3278 260° West 386 444 38,000  Level Denver Center
11:41AM 40.3800 -101.4611 260° West 387 445 38,000  Level Denver Center
11:42AM 40.3575 -101.6167 259° West 387 445 38,000  Level Denver Center
11:43AM 40.3392 -101.7514 260° West 391 450 38,000  Level Denver Center
11:44AM 40.3206 -101.8869 260° West 393 452 38,000  Level Denver Center
11:45AM 40.2975 -102.0456 259° West 397 457 38,000  Level Denver Center
11:46AM 40.2775 -102.1808 259° West 395 455 38,000  Level Denver Center
11:47AM 40.2539 -102.3419 259° West 403 464 38,000  Level Denver Center
11:49AM 40.2342 -102.4797 259° West 403 464 38,000  Level Denver Center
11:50AM 40.2111 -102.6397 259° West 400 460 38,000  Level Denver Center
11:51AM 40.1867 -102.7967 259° West 396 456 38,000  Level Denver Center
11:52AM 40.1603 -102.9633 258° West 397 457 38,000  Level Denver Center
11:53AM 40.1386 -103.1064 259° West 398 458 38,000  Level Denver Center
11:54AM 40.1172 -103.2514 259° West 402 463 38,000  Level Denver Center
11:55AM 40.0950 -103.3969 259° West 405 466 38,000  Level Denver Center
11:56AM 40.0711 -103.5442 258° West 410 472 38,000  Level Denver Center
11:57AM 40.0481 -103.6919 259° West 412 474 38,000  Level Denver Center
11:58AM 40.0236 -103.8450 258° West 424 488 38,000  Level Denver Center
11:59AM 39.9989 -103.9931 258° West 416 479 38,000  Level Denver Center
12:00PM 39.9703 -104.1708 258° West 429 494 38,000  Level Denver Center
12:01PM 39.9447 -104.3233 258° West 429 494 38,000  Level Denver Center
12:02PM 39.9192 -104.4764 258° West 431 496 38,000  Level Denver Center
12:03PM 39.8939 -104.6269 258° West 426 490 38,000  Level Denver Center
12:04PM 39.8658 -104.7758 256° West 425 489 38,000  Level Denver Center
12:05PM 39.8358 -104.9281 256° West 433 498 38,000  Level Denver Center
12:06PM 39.8014 -105.1056 256° West 433 498 38,000  Level Denver Center
12:07PM 39.7672 -105.2558 254° West 430 495 38,000  Level Denver Center
12:08PM 39.7281 -105.4028 251° West 428 493 38,000  Level Denver Center
12:09PM 39.6894 -105.5514 251° West 428 493 38,000  Level Denver Center
12:10PM 39.6506 -105.6989 251° West 426 490 38,000  Level Denver Center
12:11PM 39.6122 -105.8464 251° West 427 491 38,000  Level Denver Center
12:12PM 39.5744 -105.9936 252° West 426 490 38,000  Level Denver Center
12:13PM 39.5350 -106.1417 251° West 433 498 38,000  Level Denver Center
12:15PM 39.4925 -106.3025 251° West 434 499 38,000  Level Denver Center
12:16PM 39.4531 -106.4503 251° West 433 498 38,000  Level Denver Center
12:17PM 39.4119 -106.6022 251° West 430 495 38,000  Level Denver Center
12:18PM 39.3675 -106.7636 250° West 430 495 38,000  Level Denver Center
12:19PM 39.3308 -106.9061 252° West 435 501 38,000  Level Denver Center
12:20PM 39.2850 -107.0692 250° West 432 497 38,000  Level Denver Center
12:21PM 39.2450 -107.2106 250° West 436 502 38,000  Level Denver Center
12:22PM 39.2061 -107.3522 251° West 437 503 38,000  Level Denver Center
12:23PM 39.1656 -107.4928 250° West 436 502 38,000  Level Denver Center
12:24PM 39.1186 -107.6578 250° West 438 504 38,000  Level Denver Center
12:25PM 39.0717 -107.8247 250° West 441 507 38,000  Level Denver Center
12:26PM 39.0317 -107.9694 250° West 446 513 38,000  Level Denver Center
12:27PM 38.9900 -108.1119 249° West 445 512 38,000  Level Denver Center
12:28PM 38.9428 -108.2783 250° West 443 510 38,000  Level Denver Center
12:29PM 38.9022 -108.4203 250° West 439 505 38,000  Level Denver Center
12:30PM 38.8536 -108.5839 249° West 438 504 38,000  Level Denver Center
12:31PM 38.8122 -108.7250 249° West 440 506 38,000  Level Denver Center
12:32PM 38.7711 -108.8653 249° West 439 505 38,000  Level Denver Center
12:33PM 38.7236 -109.0294 250° West 440 506 38,000  Level Denver Center
12:34PM 38.6806 -109.1700 249° West 442 509 38,000  Level Denver Center
12:35PM 38.6322 -109.3358 250° West 445 512 38,000 -360 Level Denver Center
12:36PM 38.5886 -109.4764 248° West 445 512 37,300 -840 Descending Denver Center
12:37PM 38.5378 -109.6439 249° West 452 520 36,300 -660 Descending Denver Center
12:38PM 38.4947 -109.7864 249° West 450 518 36,000 -180 Descending Denver Center
12:39PM 38.4458 -109.9258 246° West 447 514 36,000  Level Denver Center
12:40PM 38.3786 -110.0819 241° Southwest 449 517 36,000  Level Denver Center
12:41PM 38.3308 -110.1922 241° Southwest 447 514 36,000  Level Denver Center
12:42PM 38.2536 -110.3747 242° Southwest 459 528 36,000  Level Denver Center
12:43PM 38.1942 -110.5131 241° Southwest 464 534 36,000  Level Denver Center
12:44PM 38.1356 -110.6506 242° Southwest 462 532 36,000  Level Denver Center
12:45PM 38.1161 -110.6975 242° Southwest 463 533 36,000  Level Salt Lake Center
12:45PM 38.0656 -110.8103 240° Southwest 464 534 36,000 -240 Level Denver Center
12:46PM 38.0017 -110.9597 242° Southwest 464 534 35,600 -720 Descending Denver Center
12:48PM 37.9286 -111.1322 242° Southwest 463 533 34,400 -960 Descending Salt Lake Center
12:49PM 37.8650 -111.2733 240° Southwest 463 533 33,500 -960 Descending Salt Lake Center
12:50PM 37.8036 -111.4186 242° Southwest 466 536 32,500 -780 Descending Salt Lake Center
12:51PM 37.7392 -111.5619 240° Southwest 470 541 32,000 -300 Descending Salt Lake Center
12:52PM 37.6644 -111.7308 241° Southwest 462 532 32,000  Level Salt Lake Center
12:53PM 37.6006 -111.8692 240° Southwest 457 526 32,000  Level Denver Center
12:54PM 37.5383 -112.0094 241° Southwest 459 528 32,000  Level Salt Lake Center
12:55PM 37.4761 -112.1497 241° Southwest 461 531 32,000  Level Los Angeles Center
12:56PM 37.4114 -112.2922 240° Southwest 463 533 32,000  Level Salt Lake Center
12:57PM 37.3444 -112.4331 239° Southwest 467 537 32,000 -300 Level Los Angeles Center
12:58PM 37.2797 -112.5756 240° Southwest 467 537 31,400 -780 Descending Los Angeles Center
12:59PM 37.2144 -112.7181 240° Southwest 467 537 30,400 -780 Descending Los Angeles Center
01:00PM 37.1500 -112.8589 240° Southwest 464 534 29,900 -900 Descending Salt Lake Center
01:01PM 37.0850 -112.9997 240° Southwest 465 535 28,600 -1,680 Descending Los Angeles Center
01:02PM 37.0072 -113.1664 240° Southwest 462 532 26,500 -1,920 Descending Los Angeles Center
01:03PM 36.9411 -113.3067 240° Southwest 467 537 24,700 -1,200 Descending Los Angeles Center
01:04PM 36.8794 -113.4428 241° Southwest 454 522 24,000 -360 Descending Los Angeles Center
01:05PM 36.8178 -113.5756 240° Southwest 444 511 24,000  Level Los Angeles Center
01:06PM 36.7572 -113.7092 241° Southwest 442 509 24,000 -540 Level Los Angeles Center
01:07PM 36.6950 -113.8422 240° Southwest 444 511 22,900 -2,040 Descending Los Angeles Center
01:08PM 36.6225 -113.9956 240° Southwest 432 497 19,900 -2,640 Descending Los Angeles Center
01:09PM 36.5650 -114.1197 240° Southwest 420 483 17,500 -2,400 Descending Los Angeles Center
01:10PM 36.5044 -114.2486 240° Southwest 405 466 14,900 -2,460 Descending Los Angeles Center
01:11PM 36.4814 -114.3003 241° Southwest 393 452 13,900 -1,740 Descending Los Angeles Center
01:12PM 36.4286 -114.4119 240° Southwest 370 426 12,400 -1,260 Descending Los Angeles Center
01:12PM 36.3986 -114.4617 233° Southwest 349 402 11,900 -1,020 Descending Los Angeles Center
01:13PM 36.3653 -114.4872 212° Southwest 329 379 11,400 -1,140 Descending Los Angeles Center
01:13PM 36.3119 -114.4889 181° South 329 379 10,700 -1,320 Descending Los Angeles Center
01:14PM 36.2742 -114.4967 189° South 319 367 10,100 -1,380 Descending Los Angeles Center
01:14PM 36.2267 -114.5053 188° South 312 359 9,300 -1,320 Descending Los Angeles Center
01:15PM 36.1922 -114.5272 207° Southwest 312 359 8,800 -1,320 Descending Los Angeles Center
01:15PM 36.1475 -114.5439 197° South 306 352 8,000 -840 Descending Los Angeles Center
01:16PM 36.1167 -114.5661 210° Southwest 293 337 8,000  Level Los Angeles Center
01:17PM 36.0836 -114.6156 230° Southwest 263 303 8,000  Level Los Angeles Center
01:17PM 36.0769 -114.6408 252° West 243 280 8,000  Level Los Angeles Center
01:18PM 36.0711 -114.6969 263° West 249 287 8,000  Level Los Angeles Center
01:18PM 36.0731 -114.7300 274° West 233 268 8,000 -600 Level Los Angeles Center
01:19PM 36.0731 -114.7789 270° West 243 280 7,400 -1,020 Descending Los Angeles Center
01:19PM 36.0747 -114.8067 274° West 237 273 7,100 -720 Descending Los Angeles Center
01:20PM 36.0886 -114.8564 289° West 234 269 6,700 -660 Descending Los Angeles Center
01:20PM 36.0742 -114.8919 243° Southwest 229 264 6,400 -900 Descending Los Angeles Center
01:21PM 36.0714 -114.9336 265° West 234 269 5,800 -1,200 Descending Los Angeles Center
01:21PM 36.0717 -114.9594 271° West 192 221 5,200 -1,260 Descending Los Angeles Center
01:22PM 36.0722 -114.9972 271° West 211 243 4,500 -1,020 Descending Los Angeles Center
01:22PM 36.0750 -115.0247 277° West 180 207 4,200 -1,140 Descending Los Angeles Center
01:23PM 36.0747 -115.0528 269° West 186 214 3,400 -1,380 Descending Los Angeles Center
01:23PM 36.0733 -115.0761 266° West 146 168 2,800 -1,020 Descending Los Angeles Center
01:24PM 36.0733 -115.1086 270° West 156 180 2,300 -420 Descending Los Angeles Center
01:25PM 36.0731 -115.1553 270° West 153 176 2,100 -240 Descending Los Angeles Center